Findlay, OH

11:51 AM EDT on April 30, 2017 (GMT -0400)
Winterwood | | Change Station

Elev 794 ft 41.04 °N, 83.59 °W | Updated 2 days ago

Mostly Cloudy
Mostly Cloudy
42.4 °F
Feels Like 42 °F
N
0.0
Wind Variable Wind from SE
Gusts 1.6 mph

Today
High -- | Low -- °F
--% Chance of Precip.
Yesterday
High -- | Low -- °F
Precip. -- in
Pressure 29.88 in
Visibility 8.0 miles
Clouds Few 900 ft
Scattered Clouds 7500 ft
Scattered Clouds 9000 ft
Windchill 42 °F
Dew Point -10 °F
Humidity 10%
Rainfall 0.35 in
Snow Depth Not available.
6:33 AM 8:30 PM
Waxing Crescent, 23% visible
METAR KFDY 301453Z AUTO 15009KT 8SM FEW009 SCT075 SCT090 20/17 A2989 RMK AO2 SLP119 T02000167 58009 TSNO
Pressure 29.88 in
Visibility 8.0 miles
Clouds Few 900 ft
Scattered Clouds 7500 ft
Scattered Clouds 9000 ft
Windchill 42 °F
Dew Point -10 °F
Humidity 10%
Rainfall 0.35 in
Snow Depth Not available.
6:33 AM 8:30 PM
Waxing Crescent, 23% visible
METAR KFDY 301453Z AUTO 15009KT 8SM FEW009 SCT075 SCT090 20/17 A2989 RMK AO2 SLP119 T02000167 58009 TSNO

Get Severe Weather Alerts

Thanks for signing up!

Be on the lookout for a verification email in your inbox.

You'll start receiving the daily forecast at 8 AM.

×

10-Day Weather Forecast

Almanac

Astronomy

Apr. 30, 2017 Rise Set
Actual Time
Civil Twilight
Nautical Twilight
Astronomical Twilight
Moon
Length of Visible Light
Length of Day
Tomorrow will be .
, % of the Moon is Illuminated

Today's Extremes

State Highs State Lows

Community

WunderPhotos

WunderBlog® & News

Nearby

Air Quality

  Air Quality AQ Index Pollutant
Not available.

Snow Depth

Station Depth Elevation

Earthquake Activity

City Distance Mag. Time & Date
Minimum magnitude displayed is 2.5.

Coastal Water Temperatures

Place Temperature

Stations

Nearby Weather Stations

Station Location Temp. Windchill Dew Point Humidity Wind Precip. Elev Updated Type
                   

Watches & Warnings

There are currently no watches in effect.